sensor_id;sensor_type;location;lat;lon;timestamp;pressure;altitude;pressure_sealevel;temperature;humidity
75604;BME280;64187;51.010;13.792;2023-02-12T00:02:31;102005.78;;;6.94;83.14
75604;BME280;64187;51.010;13.792;2023-02-12T00:07:29;102010.09;;;6.72;84.11
75604;BME280;64187;51.010;13.792;2023-02-12T00:12:29;102016.16;;;6.74;83.77
75604;BME280;64187;51.010;13.792;2023-02-12T00:17:27;102016.81;;;6.76;83.93
75604;BME280;64187;51.010;13.792;2023-02-12T00:22:26;102014.88;;;6.93;83.14
75604;BME280;64187;51.010;13.792;2023-02-12T00:27:26;102024.03;;;6.76;83.81
75604;BME280;64187;51.010;13.792;2023-02-12T00:32:26;102024.91;;;6.76;84.00
75604;BME280;64187;51.010;13.792;2023-02-12T00:37:25;102019.00;;;6.81;83.80
75604;BME280;64187;51.010;13.792;2023-02-12T00:42:24;102028.47;;;6.68;84.12
75604;BME280;64187;51.010;13.792;2023-02-12T00:47:23;102024.91;;;6.76;83.95
75604;BME280;64187;51.010;13.792;2023-02-12T00:52:22;102033.31;;;6.73;84.19
75604;BME280;64187;51.010;13.792;2023-02-12T00:57:20;102019.84;;;6.73;84.12
75604;BME280;64187;51.010;13.792;2023-02-12T01:02:20;102035.69;;;6.68;84.34
75604;BME280;64187;51.010;13.792;2023-02-12T01:07:19;102043.06;;;6.74;84.17
75604;BME280;64187;51.010;13.792;2023-02-12T01:12:18;102045.41;;;6.77;84.00
75604;BME280;64187;51.010;13.792;2023-02-12T01:17:17;102044.06;;;6.73;84.30
75604;BME280;64187;51.010;13.792;2023-02-12T01:22:16;102052.50;;;6.78;83.91
75604;BME280;64187;51.010;13.792;2023-02-12T01:27:15;102052.34;;;6.72;84.31
75604;BME280;64187;51.010;13.792;2023-02-12T01:32:14;102046.47;;;6.60;84.64
75604;BME280;64187;51.010;13.792;2023-02-12T01:37:13;102052.38;;;6.55;85.04
75604;BME280;64187;51.010;13.792;2023-02-12T01:42:14;102048.81;;;6.71;84.30
75604;BME280;64187;51.010;13.792;2023-02-12T01:47:16;102051.66;;;6.69;84.77
75604;BME280;64187;51.010;13.792;2023-02-12T01:52:30;102055.19;;;6.70;84.59
75604;BME280;64187;51.010;13.792;2023-02-12T01:57:34;102051.66;;;6.69;84.77
75604;BME280;64187;51.010;13.792;2023-02-12T02:02:35;102061.56;;;6.77;84.04
75604;BME280;64187;51.010;13.792;2023-02-12T02:07:34;102049.44;;;6.81;84.12
75604;BME280;64187;51.010;13.792;2023-02-12T02:12:36;102055.34;;;6.77;84.37
75604;BME280;64187;51.010;13.792;2023-02-12T02:18:06;102053.31;;;6.71;84.51
75604;BME280;64187;51.010;13.792;2023-02-12T02:28:52;102046.25;;;6.78;84.14
75604;BME280;64187;51.010;13.792;2023-02-12T02:39:24;102056.63;;;6.89;84.17
75604;BME280;64187;51.010;13.792;2023-02-12T02:49:57;102057.00;;;6.86;84.57
75604;BME280;64187;51.010;13.792;2023-02-12T02:55:02;102066.81;;;6.62;84.88
75604;BME280;64187;51.010;13.792;2023-02-12T03:05:18;102071.47;;;7.16;82.84
75604;BME280;64187;51.010;13.792;2023-02-12T03:10:27;102085.94;;;7.46;81.66
75604;BME280;64187;51.010;13.792;2023-02-12T03:20:36;102092.66;;;7.73;80.35
75604;BME280;64187;51.010;13.792;2023-02-12T03:25:53;102095.06;;;7.68;80.27
75604;BME280;64187;51.010;13.792;2023-02-12T03:36:13;102112.66;;;7.79;79.56
75604;BME280;64187;51.010;13.792;2023-02-12T03:41:19;102122.19;;;7.67;79.94
75604;BME280;64187;51.010;13.792;2023-02-12T03:46:26;102131.84;;;7.61;80.65
75604;BME280;64187;51.010;13.792;2023-02-12T03:51:52;102132.72;;;7.53;80.97
75604;BME280;64187;51.010;13.792;2023-02-12T03:56:56;102141.47;;;7.24;82.18
75604;BME280;64187;51.010;13.792;2023-02-12T04:01:58;102150.97;;;7.43;81.79
75604;BME280;64187;51.010;13.792;2023-02-12T04:06:57;102159.28;;;7.33;82.25
75604;BME280;64187;51.010;13.792;2023-02-12T04:12:38;102171.25;;;7.23;82.71
75604;BME280;64187;51.010;13.792;2023-02-12T04:22:50;102173.88;;;7.00;83.54
75604;BME280;64187;51.010;13.792;2023-02-12T04:33:24;102171.16;;;7.00;83.85
75604;BME280;64187;51.010;13.792;2023-02-12T04:38:28;102173.69;;;7.01;84.03
75604;BME280;64187;51.010;13.792;2023-02-12T04:43:32;102171.56;;;6.80;84.76
75604;BME280;64187;51.010;13.792;2023-02-12T04:48:37;102175.16;;;7.12;83.97
75604;BME280;64187;51.010;13.792;2023-02-12T04:53:41;102182.09;;;7.06;84.21
75604;BME280;64187;51.010;13.792;2023-02-12T04:58:40;102188.31;;;7.07;83.98
75604;BME280;64187;51.010;13.792;2023-02-12T05:03:39;102184.72;;;7.23;83.00
75604;BME280;64187;51.010;13.792;2023-02-12T05:08:38;102192.41;;;6.86;84.28
75604;BME280;64187;51.010;13.792;2023-02-12T05:13:37;102187.50;;;6.90;84.55
75604;BME280;64187;51.010;13.792;2023-02-12T05:18:36;102188.59;;;7.20;82.83
75604;BME280;64187;51.010;13.792;2023-02-12T05:23:36;102201.09;;;7.05;83.59
75604;BME280;64187;51.010;13.792;2023-02-12T05:28:36;102203.47;;;7.47;81.72
75604;BME280;64187;51.010;13.792;2023-02-12T05:33:35;102203.53;;;7.39;81.98
75604;BME280;64187;51.010;13.792;2023-02-12T05:38:34;102201.34;;;7.34;82.38
75604;BME280;64187;51.010;13.792;2023-02-12T05:43:33;102203.25;;;7.26;82.49
75604;BME280;64187;51.010;13.792;2023-02-12T05:48:33;102218.09;;;7.14;82.56
75604;BME280;64187;51.010;13.792;2023-02-12T05:53:32;102205.06;;;7.65;80.63
75604;BME280;64187;51.010;13.792;2023-02-12T05:58:31;102211.13;;;7.67;80.43
75604;BME280;64187;51.010;13.792;2023-02-12T06:03:30;102205.13;;;7.57;80.48
75604;BME280;64187;51.010;13.792;2023-02-12T06:08:28;102224.09;;;7.32;81.47
75604;BME280;64187;51.010;13.792;2023-02-12T06:13:28;102230.81;;;7.36;81.34
75604;BME280;64187;51.010;13.792;2023-02-12T06:18:27;102228.66;;;7.71;79.94
75604;BME280;64187;51.010;13.792;2023-02-12T06:23:26;102237.94;;;7.60;80.01
75604;BME280;64187;51.010;13.792;2023-02-12T06:28:25;102242.22;;;7.46;80.86
75604;BME280;64187;51.010;13.792;2023-02-12T06:33:24;102255.66;;;7.63;79.91
75604;BME280;64187;51.010;13.792;2023-02-12T06:38:22;102266.56;;;7.14;81.96
75604;BME280;64187;51.010;13.792;2023-02-12T06:43:21;102277.38;;;7.61;79.91
75604;BME280;64187;51.010;13.792;2023-02-12T06:48:20;102287.00;;;7.55;80.49
75604;BME280;64187;51.010;13.792;2023-02-12T06:53:19;102293.13;;;7.25;81.35
75604;BME280;64187;51.010;13.792;2023-02-12T06:58:18;102292.63;;;7.29;81.23
75604;BME280;64187;51.010;13.792;2023-02-12T07:03:17;102295.97;;;7.40;81.07
75604;BME280;64187;51.010;13.792;2023-02-12T07:08:16;102298.53;;;7.17;81.99
75604;BME280;64187;51.010;13.792;2023-02-12T07:13:15;102298.53;;;7.33;81.25
75604;BME280;64187;51.010;13.792;2023-02-12T07:18:13;102307.88;;;7.53;80.62
75604;BME280;64187;51.010;13.792;2023-02-12T07:23:12;102312.97;;;7.40;81.25
75604;BME280;64187;51.010;13.792;2023-02-12T07:28:11;102312.97;;;7.48;80.77
75604;BME280;64187;51.010;13.792;2023-02-12T07:33:11;102317.31;;;7.49;80.96
75604;BME280;64187;51.010;13.792;2023-02-12T07:38:10;102319.94;;;7.74;79.75
75604;BME280;64187;51.010;13.792;2023-02-12T07:43:09;102319.78;;;7.67;80.20
75604;BME280;64187;51.010;13.792;2023-02-12T07:48:10;102322.59;;;7.90;79.03
75604;BME280;64187;51.010;13.792;2023-02-12T07:53:10;102324.88;;;8.02;78.52
75604;BME280;64187;51.010;13.792;2023-02-12T07:58:11;102336.28;;;7.81;79.58
75604;BME280;64187;51.010;13.792;2023-02-12T08:03:10;102337.81;;;7.67;80.44
75604;BME280;64187;51.010;13.792;2023-02-12T08:08:09;102337.06;;;7.97;78.96
75604;BME280;64187;51.010;13.792;2023-02-12T08:13:08;102336.81;;;8.38;77.12
75604;BME280;64187;51.010;13.792;2023-02-12T08:18:07;102335.25;;;8.75;76.33
75604;BME280;64187;51.010;13.792;2023-02-12T08:23:05;102341.38;;;8.92;75.33
75604;BME280;64187;51.010;13.792;2023-02-12T08:28:04;102337.47;;;12.87;77.71
75604;BME280;64187;51.010;13.792;2023-02-12T08:33:04;102349.41;;;14.88;61.71
75604;BME280;64187;51.010;13.792;2023-02-12T08:38:02;102350.44;;;15.18;56.71
75604;BME280;64187;51.010;13.792;2023-02-12T08:43:01;102349.81;;;14.91;57.42
75604;BME280;64187;51.010;13.792;2023-02-12T08:48:00;102357.41;;;14.82;56.94
75604;BME280;64187;51.010;13.792;2023-02-12T08:52:59;102355.06;;;14.61;56.46
75604;BME280;64187;51.010;13.792;2023-02-12T08:57:58;102366.16;;;13.29;58.27
75604;BME280;64187;51.010;13.792;2023-02-12T09:02:58;102380.19;;;10.84;66.63
75604;BME280;64187;51.010;13.792;2023-02-12T09:07:57;102390.22;;;10.18;69.38
75604;BME280;64187;51.010;13.792;2023-02-12T09:12:56;102394.16;;;9.85;70.72
75604;BME280;64187;51.010;13.792;2023-02-12T09:17:55;102395.47;;;9.75;71.34
75604;BME280;64187;51.010;13.792;2023-02-12T09:22:53;102395.00;;;9.86;71.47
75604;BME280;64187;51.010;13.792;2023-02-12T09:27:54;102395.38;;;9.68;72.31
75604;BME280;64187;51.010;13.792;2023-02-12T09:32:54;102401.34;;;9.78;71.86
75604;BME280;64187;51.010;13.792;2023-02-12T09:37:53;102404.16;;;9.85;71.16
75604;BME280;64187;51.010;13.792;2023-02-12T09:43:05;102409.94;;;9.67;72.57
75604;BME280;64187;51.010;13.792;2023-02-12T09:53:12;102414.31;;;8.84;74.62
75604;BME280;64187;51.010;13.792;2023-02-12T09:58:48;102422.56;;;8.91;75.13
75604;BME280;64187;51.010;13.792;2023-02-12T10:03:50;102426.00;;;8.84;74.80
75604;BME280;64187;51.010;13.792;2023-02-12T10:09:21;102423.63;;;8.81;74.85
75604;BME280;64187;51.010;13.792;2023-02-12T10:25:50;102439.34;;;8.55;75.18
75604;BME280;64187;51.010;13.792;2023-02-12T10:41:26;102434.16;;;8.99;74.09
75604;BME280;64187;51.010;13.792;2023-02-12T10:46:29;102417.03;;;9.30;72.88
75604;BME280;64187;51.010;13.792;2023-02-12T10:56:31;102422.41;;;9.68;70.68
75604;BME280;64187;51.010;13.792;2023-02-12T11:01:36;102422.72;;;9.35;72.80
75604;BME280;64187;51.010;13.792;2023-02-12T11:06:35;102411.69;;;9.60;71.49
75604;BME280;64187;51.010;13.792;2023-02-12T11:11:37;102417.56;;;10.08;70.23
75604;BME280;64187;51.010;13.792;2023-02-12T11:16:40;102407.25;;;9.97;70.02
75604;BME280;64187;51.010;13.792;2023-02-12T11:21:43;102401.06;;;9.88;69.97
75604;BME280;64187;51.010;13.792;2023-02-12T11:26:42;102400.66;;;10.21;69.32
75604;BME280;64187;51.010;13.792;2023-02-12T11:31:41;102396.22;;;9.83;69.78
75604;BME280;64187;51.010;13.792;2023-02-12T11:36:42;102399.00;;;10.05;69.40
75604;BME280;64187;51.010;13.792;2023-02-12T11:41:42;102395.91;;;10.38;67.45
75604;BME280;64187;51.010;13.792;2023-02-12T11:46:47;102399.94;;;10.27;68.18
75604;BME280;64187;51.010;13.792;2023-02-12T11:51:48;102401.16;;;10.24;68.13
75604;BME280;64187;51.010;13.792;2023-02-12T11:56:47;102381.81;;;10.42;67.36
75604;BME280;64187;51.010;13.792;2023-02-12T12:01:47;102387.03;;;13.29;65.45
75604;BME280;64187;51.010;13.792;2023-02-12T12:06:52;102395.25;;;11.99;60.16
75604;BME280;64187;51.010;13.792;2023-02-12T12:12:02;102387.53;;;10.18;65.69
75604;BME280;64187;51.010;13.792;2023-02-12T12:17:13;102389.09;;;9.38;68.16
75604;BME280;64187;51.010;13.792;2023-02-12T12:33:04;102390.41;;;9.19;69.37
75604;BME280;64187;51.010;13.792;2023-02-12T12:38:25;102390.91;;;9.22;69.58
75604;BME280;64187;51.010;13.792;2023-02-12T12:49:37;102375.13;;;9.49;69.46
75604;BME280;64187;51.010;13.792;2023-02-12T13:00:13;102371.50;;;10.16;67.22
75604;BME280;64187;51.010;13.792;2023-02-12T13:05:53;102369.22;;;10.20;66.88
75604;BME280;64187;51.010;13.792;2023-02-12T13:11:01;102366.94;;;9.57;69.96
75604;BME280;64187;51.010;13.792;2023-02-12T13:26:30;102374.38;;;9.02;73.10
75604;BME280;64187;51.010;13.792;2023-02-12T13:31:42;102370.88;;;8.71;74.77
75604;BME280;64187;51.010;13.792;2023-02-12T13:36:43;102372.22;;;8.75;75.02
75604;BME280;64187;51.010;13.792;2023-02-12T13:41:47;102365.94;;;8.74;74.77
75604;BME280;64187;51.010;13.792;2023-02-12T13:57:19;102381.66;;;8.08;79.48
75604;BME280;64187;51.010;13.792;2023-02-12T14:07:44;102364.84;;;9.06;76.20
75604;BME280;64187;51.010;13.792;2023-02-12T14:12:44;102368.19;;;8.94;76.54
75604;BME280;64187;51.010;13.792;2023-02-12T14:18:35;102373.28;;;8.89;77.15
75604;BME280;64187;51.010;13.792;2023-02-12T14:23:26;102373.06;;;9.66;74.17
75604;BME280;64187;51.010;13.792;2023-02-12T14:28:54;102372.78;;;9.46;74.63
75604;BME280;64187;51.010;13.792;2023-02-12T14:49:35;102379.88;;;9.09;76.22
75604;BME280;64187;51.010;13.792;2023-02-12T14:59:42;102385.59;;;9.14;75.92
75604;BME280;64187;51.010;13.792;2023-02-12T15:04:43;102383.13;;;9.04;75.93
75604;BME280;64187;51.010;13.792;2023-02-12T15:10:05;102379.66;;;8.96;76.47
75604;BME280;64187;51.010;13.792;2023-02-12T15:15:17;102390.78;;;9.16;75.73
75604;BME280;64187;51.010;13.792;2023-02-12T15:20:23;102382.56;;;9.09;76.34
75604;BME280;64187;51.010;13.792;2023-02-12T15:25:28;102393.03;;;8.66;78.21
75604;BME280;64187;51.010;13.792;2023-02-12T15:30:31;102381.16;;;8.75;78.53
75604;BME280;64187;51.010;13.792;2023-02-12T15:35:33;102397.41;;;8.67;79.29
75604;BME280;64187;51.010;13.792;2023-02-12T15:40:34;102400.97;;;8.59;80.03
75604;BME280;64187;51.010;13.792;2023-02-12T15:45:35;102400.91;;;8.36;81.35
75604;BME280;64187;51.010;13.792;2023-02-12T15:50:44;102396.09;;;8.86;79.90
75604;BME280;64187;51.010;13.792;2023-02-12T15:55:45;102384.25;;;9.10;78.92
75604;BME280;64187;51.010;13.792;2023-02-12T16:00:46;102395.25;;;8.62;79.76
75604;BME280;64187;51.010;13.792;2023-02-12T16:05:46;102390.03;;;8.84;78.78
75604;BME280;64187;51.010;13.792;2023-02-12T16:10:47;102394.06;;;8.65;79.63
75604;BME280;64187;51.010;13.792;2023-02-12T16:21:21;102401.91;;;8.75;79.48
75604;BME280;64187;51.010;13.792;2023-02-12T16:26:25;102406.88;;;8.86;78.92
75604;BME280;64187;51.010;13.792;2023-02-12T16:31:26;102415.91;;;9.01;78.29
75604;BME280;64187;51.010;13.792;2023-02-12T16:36:28;102411.88;;;8.97;78.29
75604;BME280;64187;51.010;13.792;2023-02-12T16:41:30;102425.16;;;9.07;77.90
75604;BME280;64187;51.010;13.792;2023-02-12T16:46:32;102423.41;;;9.14;77.79
75604;BME280;64187;51.010;13.792;2023-02-12T16:51:34;102429.59;;;9.00;77.98
75604;BME280;64187;51.010;13.792;2023-02-12T16:56:36;102429.81;;;9.13;77.77
75604;BME280;64187;51.010;13.792;2023-02-12T17:01:36;102434.78;;;8.55;80.02
75604;BME280;64187;51.010;13.792;2023-02-12T17:06:35;102432.44;;;8.44;79.90
75604;BME280;64187;51.010;13.792;2023-02-12T17:11:34;102437.84;;;8.44;80.13
75604;BME280;64187;51.010;13.792;2023-02-12T17:16:33;102436.53;;;8.32;79.96
75604;BME280;64187;51.010;13.792;2023-02-12T17:21:34;102436.94;;;8.60;78.92
75604;BME280;64187;51.010;13.792;2023-02-12T17:26:37;102438.59;;;8.61;78.96
75604;BME280;64187;51.010;13.792;2023-02-12T17:31:37;102443.75;;;8.39;79.25
75604;BME280;64187;51.010;13.792;2023-02-12T17:36:36;102454.03;;;8.52;78.73
75604;BME280;64187;51.010;13.792;2023-02-12T17:41:35;102460.47;;;8.35;79.89
75604;BME280;64187;51.010;13.792;2023-02-12T17:46:34;102458.47;;;8.29;79.63
75604;BME280;64187;51.010;13.792;2023-02-12T17:51:33;102468.91;;;8.32;79.13
75604;BME280;64187;51.010;13.792;2023-02-12T17:56:33;102469.84;;;8.08;80.41
75604;BME280;64187;51.010;13.792;2023-02-12T18:01:32;102463.69;;;8.22;79.48
75604;BME280;64187;51.010;13.792;2023-02-12T18:06:32;102472.44;;;8.40;78.12
75604;BME280;64187;51.010;13.792;2023-02-12T18:11:32;102481.56;;;8.31;79.00
75604;BME280;64187;51.010;13.792;2023-02-12T18:16:33;102479.25;;;8.12;79.25
75604;BME280;64187;51.010;13.792;2023-02-12T18:21:32;102473.38;;;8.08;78.93
75604;BME280;64187;51.010;13.792;2023-02-12T18:26:32;102471.28;;;8.27;78.76
75604;BME280;64187;51.010;13.792;2023-02-12T18:31:31;102477.22;;;8.14;78.95
75604;BME280;64187;51.010;13.792;2023-02-12T18:36:31;102477.34;;;8.45;78.24
75604;BME280;64187;51.010;13.792;2023-02-12T18:41:31;102477.09;;;7.99;79.42
75604;BME280;64187;51.010;13.792;2023-02-12T18:46:30;102481.59;;;8.23;78.48
75604;BME280;64187;51.010;13.792;2023-02-12T18:51:30;102467.22;;;8.31;77.82
75604;BME280;64187;51.010;13.792;2023-02-12T18:56:36;102463.56;;;8.07;79.15
75604;BME280;64187;51.010;13.792;2023-02-12T19:01:35;102463.06;;;8.12;78.68
75604;BME280;64187;51.010;13.792;2023-02-12T19:06:41;102466.75;;;8.19;78.30
75604;BME280;64187;51.010;13.792;2023-02-12T19:11:40;102454.59;;;8.23;78.08
75604;BME280;64187;51.010;13.792;2023-02-12T19:16:40;102464.16;;;8.34;77.71
75604;BME280;64187;51.010;13.792;2023-02-12T19:21:39;102460.78;;;7.84;79.28
75604;BME280;64187;51.010;13.792;2023-02-12T19:26:38;102459.50;;;8.28;78.25
75604;BME280;64187;51.010;13.792;2023-02-12T19:31:40;102463.16;;;7.71;79.83
75604;BME280;64187;51.010;13.792;2023-02-12T19:36:39;102453.00;;;7.97;78.86
75604;BME280;64187;51.010;13.792;2023-02-12T19:41:38;102447.38;;;8.15;77.50
75604;BME280;64187;51.010;13.792;2023-02-12T19:46:40;102445.84;;;8.21;78.02
75604;BME280;64187;51.010;13.792;2023-02-12T19:51:40;102451.94;;;8.07;79.17
75604;BME280;64187;51.010;13.792;2023-02-12T19:56:39;102442.00;;;8.15;78.41
75604;BME280;64187;51.010;13.792;2023-02-12T20:01:39;102446.41;;;8.08;78.62
75604;BME280;64187;51.010;13.792;2023-02-12T20:06:39;102443.16;;;8.21;77.64
75604;BME280;64187;51.010;13.792;2023-02-12T20:11:38;102446.97;;;8.35;77.92
75604;BME280;64187;51.010;13.792;2023-02-12T20:16:38;102438.03;;;8.34;77.70
75604;BME280;64187;51.010;13.792;2023-02-12T20:21:39;102437.03;;;8.35;77.10
75604;BME280;64187;51.010;13.792;2023-02-12T20:26:38;102437.34;;;7.93;78.13
75604;BME280;64187;51.010;13.792;2023-02-12T20:31:37;102439.09;;;8.25;77.10
75604;BME280;64187;51.010;13.792;2023-02-12T20:36:38;102442.28;;;7.73;78.92
75604;BME280;64187;51.010;13.792;2023-02-12T20:41:37;102455.22;;;7.86;78.98
75604;BME280;64187;51.010;13.792;2023-02-12T20:46:37;102454.56;;;7.75;79.04
75604;BME280;64187;51.010;13.792;2023-02-12T20:51:40;102463.44;;;7.92;77.83
75604;BME280;64187;51.010;13.792;2023-02-12T20:56:39;102452.25;;;7.48;79.32
75604;BME280;64187;51.010;13.792;2023-02-12T21:01:40;102451.88;;;7.67;78.92
75604;BME280;64187;51.010;13.792;2023-02-12T21:06:39;102447.97;;;7.86;78.05
75604;BME280;64187;51.010;13.792;2023-02-12T21:11:40;102452.56;;;7.53;78.88
75604;BME280;64187;51.010;13.792;2023-02-12T21:16:40;102455.19;;;7.94;78.61
75604;BME280;64187;51.010;13.792;2023-02-12T21:21:41;102444.25;;;7.87;78.21
75604;BME280;64187;51.010;13.792;2023-02-12T21:26:42;102452.50;;;11.27;74.74
75604;BME280;64187;51.010;13.792;2023-02-12T21:31:43;102458.16;;;12.10;67.29
75604;BME280;64187;51.010;13.792;2023-02-12T21:36:44;102449.97;;;10.16;67.50
75604;BME280;64187;51.010;13.792;2023-02-12T21:41:43;102454.22;;;9.05;72.26
75604;BME280;64187;51.010;13.792;2023-02-12T21:46:43;102462.59;;;8.08;75.67
75604;BME280;64187;51.010;13.792;2023-02-12T21:51:43;102456.38;;;7.91;76.49
75604;BME280;64187;51.010;13.792;2023-02-12T21:56:44;102447.09;;;7.94;76.67
75604;BME280;64187;51.010;13.792;2023-02-12T22:01:53;102456.44;;;7.59;77.44
75604;BME280;64187;51.010;13.792;2023-02-12T22:06:56;102456.75;;;7.23;79.81
75604;BME280;64187;51.010;13.792;2023-02-12T22:11:57;102450.03;;;7.60;77.63
75604;BME280;64187;51.010;13.792;2023-02-12T22:16:57;102451.38;;;7.15;78.93
75604;BME280;64187;51.010;13.792;2023-02-12T22:21:56;102442.31;;;7.16;78.82
75604;BME280;64187;51.010;13.792;2023-02-12T22:26:54;102440.25;;;7.18;78.15
75604;BME280;64187;51.010;13.792;2023-02-12T22:31:53;102437.25;;;7.29;76.93
75604;BME280;64187;51.010;13.792;2023-02-12T22:36:53;102448.19;;;7.36;77.27
75604;BME280;64187;51.010;13.792;2023-02-12T22:41:52;102458.81;;;7.45;77.74
75604;BME280;64187;51.010;13.792;2023-02-12T22:46:50;102461.84;;;7.50;78.63
75604;BME280;64187;51.010;13.792;2023-02-12T22:51:49;102462.63;;;6.94;79.78
75604;BME280;64187;51.010;13.792;2023-02-12T22:56:49;102465.19;;;7.03;79.06
75604;BME280;64187;51.010;13.792;2023-02-12T23:01:49;102459.63;;;7.05;79.52
75604;BME280;64187;51.010;13.792;2023-02-12T23:06:49;102463.13;;;6.97;80.32
75604;BME280;64187;51.010;13.792;2023-02-12T23:11:48;102453.75;;;7.42;78.43
75604;BME280;64187;51.010;13.792;2023-02-12T23:16:47;102446.66;;;7.25;78.89
75604;BME280;64187;51.010;13.792;2023-02-12T23:21:46;102446.50;;;7.34;78.19
75604;BME280;64187;51.010;13.792;2023-02-12T23:26:44;102442.09;;;6.93;80.08
75604;BME280;64187;51.010;13.792;2023-02-12T23:31:43;102444.63;;;6.94;79.66
75604;BME280;64187;51.010;13.792;2023-02-12T23:36:42;102443.16;;;7.16;79.12
75604;BME280;64187;51.010;13.792;2023-02-12T23:41:41;102437.19;;;6.63;81.45
75604;BME280;64187;51.010;13.792;2023-02-12T23:46:40;102427.94;;;6.74;81.11
75604;BME280;64187;51.010;13.792;2023-02-12T23:51:39;102432.84;;;6.95;80.89
75604;BME280;64187;51.010;13.792;2023-02-12T23:56:38;102435.22;;;7.39;78.96
